sensor_id;sensor_type;location;lat;lon;timestamp;pressure;altitude;pressure_sealevel;temperature;humidity
61961;BME280;47923;42.506;24.192;2023-02-04T00:01:32;95215.50;;;-0.39;72.06
61961;BME280;47923;42.506;24.192;2023-02-04T00:03:58;95346.66;;;0.47;71.16
61961;BME280;47923;42.506;24.192;2023-02-04T00:06:24;95346.34;;;0.49;71.19
61961;BME280;47923;42.506;24.192;2023-02-04T00:08:49;95195.56;;;-0.37;71.24
61961;BME280;47923;42.506;24.192;2023-02-04T00:11:15;95261.75;;;0.01;71.00
61961;BME280;47923;42.506;24.192;2023-02-04T00:13:41;95291.94;;;0.19;70.60
61961;BME280;47923;42.506;24.192;2023-02-04T00:16:06;95190.13;;;-0.32;70.81
61961;BME280;47923;42.506;24.192;2023-02-04T00:18:31;95306.38;;;0.40;70.68
61961;BME280;47923;42.506;24.192;2023-02-04T00:20:57;95341.63;;;0.60;70.49
61961;BME280;47923;42.506;24.192;2023-02-04T00:23:22;95091.44;;;-0.89;70.57
61961;BME280;47923;42.506;24.192;2023-02-04T00:25:48;95214.81;;;-0.04;70.72
61961;BME280;47923;42.506;24.192;2023-02-04T00:28:13;95170.47;;;-0.31;70.98
61961;BME280;47923;42.506;24.192;2023-02-04T00:30:39;95206.16;;;-0.09;70.93
61961;BME280;47923;42.506;24.192;2023-02-04T00:33:04;94927.06;;;-1.85;70.94
61961;BME280;47923;42.506;24.192;2023-02-04T00:35:29;95285.13;;;0.40;71.05
61961;BME280;47923;42.506;24.192;2023-02-04T00:37:55;95277.16;;;0.40;70.64
61961;BME280;47923;42.506;24.192;2023-02-04T00:40:20;95296.13;;;0.61;70.59
61961;BME280;47923;42.506;24.192;2023-02-04T00:42:46;95284.41;;;0.62;71.09
61961;BME280;47923;42.506;24.192;2023-02-04T00:45:12;95282.53;;;0.63;70.76
61961;BME280;47923;42.506;24.192;2023-02-04T00:47:37;95071.78;;;-0.74;70.61
61961;BME280;47923;42.506;24.192;2023-02-04T00:50:03;95268.94;;;0.64;71.15
61961;BME280;47923;42.506;24.192;2023-02-04T00:52:28;95045.97;;;-0.68;70.71
61961;BME280;47923;42.506;24.192;2023-02-04T00:54:54;95187.59;;;0.27;70.65
61961;BME280;47923;42.506;24.192;2023-02-04T00:57:19;95251.69;;;0.75;70.57
61961;BME280;47923;42.506;24.192;2023-02-04T00:59:45;94995.88;;;-0.84;70.33
61961;BME280;47923;42.506;24.192;2023-02-04T01:02:10;95215.88;;;0.59;70.51
61961;BME280;47923;42.506;24.192;2023-02-04T01:04:35;95264.34;;;0.78;71.22
61961;BME280;47923;42.506;24.192;2023-02-04T01:07:01;95244.97;;;0.78;71.82
61961;BME280;47923;42.506;24.192;2023-02-04T01:09:26;95208.81;;;0.54;71.89
61961;BME280;47923;42.506;24.192;2023-02-04T01:11:52;94960.16;;;-1.00;71.96
61961;BME280;47923;42.506;24.192;2023-02-04T01:14:17;95015.22;;;-0.69;72.71
61961;BME280;47923;42.506;24.192;2023-02-04T01:16:43;95211.13;;;0.70;72.53
61961;BME280;47923;42.506;24.192;2023-02-04T01:19:09;95230.19;;;0.72;72.42
61961;BME280;47923;42.506;24.192;2023-02-04T01:21:35;95211.72;;;0.67;72.64
61961;BME280;47923;42.506;24.192;2023-02-04T01:24:00;95198.72;;;0.65;73.23
61961;BME280;47923;42.506;24.192;2023-02-04T01:26:26;95189.03;;;0.47;72.45
61961;BME280;47923;42.506;24.192;2023-02-04T01:28:51;94804.84;;;-1.92;72.95
61961;BME280;47923;42.506;24.192;2023-02-04T01:31:17;95106.91;;;0.01;72.78
61961;BME280;47923;42.506;24.192;2023-02-04T01:33:42;95091.75;;;0.01;73.31
61961;BME280;47923;42.506;24.192;2023-02-04T01:36:08;95016.06;;;-0.46;73.32
61961;BME280;47923;42.506;24.192;2023-02-04T01:38:33;95184.63;;;0.65;73.44
61961;BME280;47923;42.506;24.192;2023-02-04T01:40:59;94743.78;;;-2.09;73.30
61961;BME280;47923;42.506;24.192;2023-02-04T01:43:25;95183.78;;;0.78;73.37
61961;BME280;47923;42.506;24.192;2023-02-04T01:45:51;95088.72;;;0.30;73.47
61961;BME280;47923;42.506;24.192;2023-02-04T01:48:18;95136.34;;;0.71;73.12
61961;BME280;47923;42.506;24.192;2023-02-04T01:50:49;95010.78;;;-0.02;72.83
61961;BME280;47923;42.506;24.192;2023-02-04T01:53:19;95152.34;;;1.02;72.47
61961;BME280;47923;42.506;24.192;2023-02-04T01:55:45;95112.66;;;0.83;72.87
61961;BME280;47923;42.506;24.192;2023-02-04T01:58:12;95140.91;;;1.02;72.05
61961;BME280;47923;42.506;24.192;2023-02-04T02:00:38;95062.59;;;0.54;71.95
61961;BME280;47923;42.506;24.192;2023-02-04T02:03:04;95134.69;;;1.06;71.77
61961;BME280;47923;42.506;24.192;2023-02-04T02:05:40;95126.88;;;1.10;72.21
61961;BME280;47923;42.506;24.192;2023-02-04T02:08:08;95127.19;;;1.08;71.87
61961;BME280;47923;42.506;24.192;2023-02-04T02:10:36;95137.03;;;1.08;71.42
61961;BME280;47923;42.506;24.192;2023-02-04T02:13:03;95067.66;;;0.65;71.03
61961;BME280;47923;42.506;24.192;2023-02-04T02:15:29;95124.06;;;1.06;71.00
61961;BME280;47923;42.506;24.192;2023-02-04T02:17:55;95135.78;;;1.05;70.77
61961;BME280;47923;42.506;24.192;2023-02-04T02:20:23;95023.91;;;0.40;70.21
61961;BME280;47923;42.506;24.192;2023-02-04T02:23:00;95119.19;;;1.08;70.49
61961;BME280;47923;42.506;24.192;2023-02-04T02:25:27;95107.75;;;0.99;70.73
61961;BME280;47923;42.506;24.192;2023-02-04T02:27:53;95106.47;;;0.97;70.52
61961;BME280;47923;42.506;24.192;2023-02-04T02:30:20;95066.56;;;0.66;71.25
61961;BME280;47923;42.506;24.192;2023-02-04T02:32:46;94927.47;;;-0.37;71.48
61961;BME280;47923;42.506;24.192;2023-02-04T02:35:13;95025.41;;;0.10;72.29
61961;BME280;47923;42.506;24.192;2023-02-04T02:37:39;95088.63;;;0.44;72.75
61961;BME280;47923;42.506;24.192;2023-02-04T02:40:05;94823.69;;;-1.16;73.17
61961;BME280;47923;42.506;24.192;2023-02-04T02:42:31;95104.50;;;0.58;73.44
61961;BME280;47923;42.506;24.192;2023-02-04T02:44:58;95091.16;;;0.49;73.33
61961;BME280;47923;42.506;24.192;2023-02-04T02:47:24;95095.28;;;0.55;73.84
61961;BME280;47923;42.506;24.192;2023-02-04T02:49:52;95062.78;;;0.36;73.69
61961;BME280;47923;42.506;24.192;2023-02-04T02:52:19;94800.56;;;-1.24;74.23
61961;BME280;47923;42.506;24.192;2023-02-04T02:54:44;94934.09;;;-0.25;75.14
61961;BME280;47923;42.506;24.192;2023-02-04T02:57:21;95076.91;;;0.67;75.69
61961;BME280;47923;42.506;24.192;2023-02-04T02:59:48;95079.69;;;0.62;75.77
61961;BME280;47923;42.506;24.192;2023-02-04T03:02:16;95075.09;;;0.54;76.31
61961;BME280;47923;42.506;24.192;2023-02-04T03:04:49;94914.47;;;-0.61;76.54
61961;BME280;47923;42.506;24.192;2023-02-04T03:07:16;95061.56;;;0.42;76.91
61961;BME280;47923;42.506;24.192;2023-02-04T03:09:44;95059.22;;;0.40;76.82
61961;BME280;47923;42.506;24.192;2023-02-04T03:12:09;95053.13;;;0.40;77.19
61961;BME280;47923;42.506;24.192;2023-02-04T03:14:35;94853.25;;;-0.87;77.10
61961;BME280;47923;42.506;24.192;2023-02-04T03:17:03;95033.53;;;0.36;77.42
61961;BME280;47923;42.506;24.192;2023-02-04T03:19:29;95044.69;;;0.38;78.06
61961;BME280;47923;42.506;24.192;2023-02-04T03:21:56;94908.44;;;-0.52;78.19
61961;BME280;47923;42.506;24.192;2023-02-04T03:24:22;95050.78;;;0.38;78.86
61961;BME280;47923;42.506;24.192;2023-02-04T03:26:48;94959.81;;;-0.12;78.66
61961;BME280;47923;42.506;24.192;2023-02-04T03:29:13;94559.66;;;-2.74;78.88
61961;BME280;47923;42.506;24.192;2023-02-04T03:31:39;94890.06;;;-0.49;78.79
61961;BME280;47923;42.506;24.192;2023-02-04T03:34:05;95018.69;;;0.35;78.61
61961;BME280;47923;42.506;24.192;2023-02-04T03:36:30;94940.19;;;-0.25;78.24
61961;BME280;47923;42.506;24.192;2023-02-04T03:38:56;94948.50;;;-0.18;78.41
61961;BME280;47923;42.506;24.192;2023-02-04T03:41:21;95007.53;;;0.24;78.31
61961;BME280;47923;42.506;24.192;2023-02-04T03:43:47;95005.47;;;0.21;78.21
61961;BME280;47923;42.506;24.192;2023-02-04T03:46:12;94995.78;;;0.16;78.12
61961;BME280;47923;42.506;24.192;2023-02-04T03:48:38;94988.63;;;0.25;77.47
61961;BME280;47923;42.506;24.192;2023-02-04T03:51:03;94999.25;;;0.25;77.53
61961;BME280;47923;42.506;24.192;2023-02-04T03:53:29;94759.81;;;-1.28;77.70
61961;BME280;47923;42.506;24.192;2023-02-04T03:55:54;95012.97;;;0.19;78.15
61961;BME280;47923;42.506;24.192;2023-02-04T03:58:21;95012.34;;;0.22;77.85
61961;BME280;47923;42.506;24.192;2023-02-04T04:00:46;95002.94;;;0.38;77.42
61961;BME280;47923;42.506;24.192;2023-02-04T04:03:11;95001.84;;;0.39;77.10
61961;BME280;47923;42.506;24.192;2023-02-04T04:05:37;95011.50;;;0.35;77.12
61961;BME280;47923;42.506;24.192;2023-02-04T04:08:02;94732.69;;;-1.48;77.42
61961;BME280;47923;42.506;24.192;2023-02-04T04:10:28;95011.88;;;0.20;77.52
61961;BME280;47923;42.506;24.192;2023-02-04T04:12:53;95003.91;;;0.20;78.21
61961;BME280;47923;42.506;24.192;2023-02-04T04:15:19;94912.75;;;-0.20;77.62
61961;BME280;47923;42.506;24.192;2023-02-04T04:17:44;94684.16;;;-1.57;77.12
61961;BME280;47923;42.506;24.192;2023-02-04T04:20:11;94965.06;;;0.33;76.82
61961;BME280;47923;42.506;24.192;2023-02-04T04:22:37;94940.63;;;0.22;76.43
61961;BME280;47923;42.506;24.192;2023-02-04T04:25:02;94971.56;;;0.49;76.54
61961;BME280;47923;42.506;24.192;2023-02-04T04:27:28;94758.44;;;-0.81;76.32
61961;BME280;47923;42.506;24.192;2023-02-04T04:29:54;94826.63;;;-0.37;76.22
61961;BME280;47923;42.506;24.192;2023-02-04T04:32:20;94938.66;;;0.36;76.28
61961;BME280;47923;42.506;24.192;2023-02-04T04:34:45;94960.06;;;0.62;76.08
61961;BME280;47923;42.506;24.192;2023-02-04T04:37:11;94734.31;;;-0.71;75.75
61961;BME280;47923;42.506;24.192;2023-02-04T04:39:36;94741.22;;;-0.61;75.11
61961;BME280;47923;42.506;24.192;2023-02-04T04:42:02;94963.59;;;0.89;75.50
61961;BME280;47923;42.506;24.192;2023-02-04T04:44:27;94963.44;;;0.94;75.79
61961;BME280;47923;42.506;24.192;2023-02-04T04:46:53;94955.97;;;0.96;76.68
61961;BME280;47923;42.506;24.192;2023-02-04T04:49:18;94870.03;;;0.30;77.11
61961;BME280;47923;42.506;24.192;2023-02-04T04:51:44;94947.25;;;0.73;77.49
61961;BME280;47923;42.506;24.192;2023-02-04T04:54:09;94950.78;;;0.91;78.21
61961;BME280;47923;42.506;24.192;2023-02-04T04:56:34;94942.34;;;0.89;77.96
61961;BME280;47923;42.506;24.192;2023-02-04T04:59:00;94886.84;;;0.56;77.28
61961;BME280;47923;42.506;24.192;2023-02-04T05:01:25;94951.25;;;0.93;76.75
61961;BME280;47923;42.506;24.192;2023-02-04T05:03:51;94953.31;;;0.96;76.50
61961;BME280;47923;42.506;24.192;2023-02-04T05:06:16;94496.25;;;-2.07;75.57
61961;BME280;47923;42.506;24.192;2023-02-04T05:08:42;94951.88;;;0.98;75.63
61961;BME280;47923;42.506;24.192;2023-02-04T05:11:07;94653.38;;;-0.99;75.53
61961;BME280;47923;42.506;24.192;2023-02-04T05:13:32;94954.41;;;1.03;75.50
61961;BME280;47923;42.506;24.192;2023-02-04T05:15:58;94954.88;;;1.05;75.17
61961;BME280;47923;42.506;24.192;2023-02-04T05:18:23;94811.81;;;0.11;74.81
61961;BME280;47923;42.506;24.192;2023-02-04T05:20:49;94954.44;;;1.12;75.13
61961;BME280;47923;42.506;24.192;2023-02-04T05:23:14;94971.19;;;1.13;74.81
61961;BME280;47923;42.506;24.192;2023-02-04T05:25:41;94957.09;;;1.21;74.72
61961;BME280;47923;42.506;24.192;2023-02-04T05:28:07;94959.13;;;1.24;74.61
61961;BME280;47923;42.506;24.192;2023-02-04T05:30:32;94962.25;;;1.17;74.73
61961;BME280;47923;42.506;24.192;2023-02-04T05:32:57;94763.78;;;-0.10;75.15
61961;BME280;47923;42.506;24.192;2023-02-04T05:35:23;94867.59;;;0.50;74.92
61961;BME280;47923;42.506;24.192;2023-02-04T05:37:49;94964.00;;;1.22;75.08
61961;BME280;47923;42.506;24.192;2023-02-04T05:40:14;94959.44;;;1.22;75.14
61961;BME280;47923;42.506;24.192;2023-02-04T05:42:40;94968.69;;;1.25;75.38
61961;BME280;47923;42.506;24.192;2023-02-04T05:45:07;94969.78;;;1.24;75.86
61961;BME280;47923;42.506;24.192;2023-02-04T05:47:33;94964.00;;;1.22;76.86
61961;BME280;47923;42.506;24.192;2023-02-04T05:49:59;94970.88;;;1.23;77.76
61961;BME280;47923;42.506;24.192;2023-02-04T05:52:24;94970.56;;;1.24;78.40
61961;BME280;47923;42.506;24.192;2023-02-04T05:54:50;94969.44;;;1.17;79.98
61961;BME280;47923;42.506;24.192;2023-02-04T05:57:15;94974.44;;;1.09;81.34
61961;BME280;47923;42.506;24.192;2023-02-04T05:59:40;94964.56;;;1.01;82.40
61961;BME280;47923;42.506;24.192;2023-02-04T06:02:06;94961.41;;;0.91;83.26
61961;BME280;47923;42.506;24.192;2023-02-04T06:04:31;94955.75;;;0.83;83.83
61961;BME280;47923;42.506;24.192;2023-02-04T06:06:57;94961.19;;;0.70;84.43
61961;BME280;47923;42.506;24.192;2023-02-04T06:09:22;94521.72;;;-2.19;84.43
61961;BME280;47923;42.506;24.192;2023-02-04T06:11:47;94981.03;;;0.72;85.35
61961;BME280;47923;42.506;24.192;2023-02-04T06:14:13;94551.78;;;-1.93;84.80
61961;BME280;47923;42.506;24.192;2023-02-04T06:16:38;94971.53;;;0.80;84.34
61961;BME280;47923;42.506;24.192;2023-02-04T06:19:04;94962.00;;;0.88;83.37
61961;BME280;47923;42.506;24.192;2023-02-04T06:21:29;94972.84;;;0.91;83.21
61961;BME280;47923;42.506;24.192;2023-02-04T06:23:55;94672.59;;;-0.94;81.90
61961;BME280;47923;42.506;24.192;2023-02-04T06:26:20;94904.84;;;0.59;81.44
61961;BME280;47923;42.506;24.192;2023-02-04T06:28:46;94973.94;;;0.99;81.40
61961;BME280;47923;42.506;24.192;2023-02-04T06:31:11;94982.91;;;1.12;80.70
61961;BME280;47923;42.506;24.192;2023-02-04T06:33:36;94728.56;;;-0.33;79.89
61961;BME280;47923;42.506;24.192;2023-02-04T06:36:03;94972.47;;;1.41;79.84
61961;BME280;47923;42.506;24.192;2023-02-04T06:38:28;94941.59;;;1.23;79.20
61961;BME280;47923;42.506;24.192;2023-02-04T06:40:54;94984.88;;;1.80;78.58
61961;BME280;47923;42.506;24.192;2023-02-04T06:43:19;94962.78;;;2.06;76.53
61961;BME280;47923;42.506;24.192;2023-02-04T06:45:45;94961.53;;;3.77;70.07
61961;BME280;47923;42.506;24.192;2023-02-04T06:48:11;94953.16;;;3.37;68.59
61961;BME280;47923;42.506;24.192;2023-02-04T06:50:36;94966.47;;;2.86;70.91
61961;BME280;47923;42.506;24.192;2023-02-04T06:53:02;94910.56;;;2.13;72.15
61961;BME280;47923;42.506;24.192;2023-02-04T06:55:27;94951.75;;;2.25;73.54
61961;BME280;47923;42.506;24.192;2023-02-04T06:57:56;94892.75;;;1.79;73.43
61961;BME280;47923;42.506;24.192;2023-02-04T07:00:21;94640.75;;;0.29;72.86
61961;BME280;47923;42.506;24.192;2023-02-04T07:02:47;94730.88;;;3.07;67.88
61961;BME280;47923;42.506;24.192;2023-02-04T07:05:12;94959.53;;;6.71;57.04
61961;BME280;47923;42.506;24.192;2023-02-04T07:07:37;94942.31;;;8.09;52.75
61961;BME280;47923;42.506;24.192;2023-02-04T07:10:03;94943.50;;;9.98;46.37
61961;BME280;47923;42.506;24.192;2023-02-04T07:12:29;94953.25;;;11.11;42.95
61961;BME280;47923;42.506;24.192;2023-02-04T07:14:54;94940.16;;;11.71;41.13
61961;BME280;47923;42.506;24.192;2023-02-04T07:17:19;94954.00;;;12.21;40.18
61961;BME280;47923;42.506;24.192;2023-02-04T07:19:45;94951.47;;;12.75;38.83
61961;BME280;47923;42.506;24.192;2023-02-04T07:22:10;94951.88;;;13.87;36.35
61961;BME280;47923;42.506;24.192;2023-02-04T07:24:36;94939.94;;;13.60;36.42
61961;BME280;47923;42.506;24.192;2023-02-04T07:27:01;94944.44;;;11.76;38.93
61961;BME280;47923;42.506;24.192;2023-02-04T07:29:27;94726.34;;;8.35;42.36
61961;BME280;47923;42.506;24.192;2023-02-04T07:31:52;94957.13;;;9.52;44.55
61961;BME280;47923;42.506;24.192;2023-02-04T07:34:18;94810.94;;;9.06;43.16
61961;BME280;47923;42.506;24.192;2023-02-04T07:36:44;94949.59;;;10.92;41.89
61961;BME280;47923;42.506;24.192;2023-02-04T07:39:09;94897.22;;;11.07;40.22
61961;BME280;47923;42.506;24.192;2023-02-04T07:41:35;94954.38;;;11.57;39.73
61961;BME280;47923;42.506;24.192;2023-02-04T07:44:01;94920.88;;;12.81;37.69
61961;BME280;47923;42.506;24.192;2023-02-04T07:46:27;94747.75;;;12.01;36.24
61961;BME280;47923;42.506;24.192;2023-02-04T07:48:53;94928.66;;;13.04;35.75
61961;BME280;47923;42.506;24.192;2023-02-04T07:51:18;94680.09;;;12.30;34.71
61961;BME280;47923;42.506;24.192;2023-02-04T07:53:44;94931.31;;;14.00;35.14
61961;BME280;47923;42.506;24.192;2023-02-04T07:56:09;94948.47;;;13.40;34.83
61961;BME280;47923;42.506;24.192;2023-02-04T07:58:35;94810.91;;;12.94;34.97
61961;BME280;47923;42.506;24.192;2023-02-04T08:01:00;94919.72;;;13.82;35.52
61961;BME280;47923;42.506;24.192;2023-02-04T08:03:26;94877.53;;;13.03;35.14
61961;BME280;47923;42.506;24.192;2023-02-04T08:05:52;94879.84;;;13.36;34.33
61961;BME280;47923;42.506;24.192;2023-02-04T08:08:17;94910.66;;;14.24;33.33
61961;BME280;47923;42.506;24.192;2023-02-04T08:10:43;94828.47;;;14.06;33.46
61961;BME280;47923;42.506;24.192;2023-02-04T08:13:09;94905.03;;;14.71;32.51
61961;BME280;47923;42.506;24.192;2023-02-04T08:15:34;94905.59;;;15.03;32.07
61961;BME280;47923;42.506;24.192;2023-02-04T08:18:03;94906.69;;;14.47;32.11
61961;BME280;47923;42.506;24.192;2023-02-04T08:20:29;94909.53;;;14.15;33.21
61961;BME280;47923;42.506;24.192;2023-02-04T08:22:54;94916.25;;;13.74;33.75
61961;BME280;47923;42.506;24.192;2023-02-04T08:25:20;94711.75;;;13.00;33.32
61961;BME280;47923;42.506;24.192;2023-02-04T08:27:45;94720.41;;;13.72;31.69
61961;BME280;47923;42.506;24.192;2023-02-04T08:30:11;94852.00;;;14.34;32.80
61961;BME280;47923;42.506;24.192;2023-02-04T08:32:37;94881.69;;;13.96;32.99
61961;BME280;47923;42.506;24.192;2023-02-04T08:35:04;94906.13;;;13.96;33.08
61961;BME280;47923;42.506;24.192;2023-02-04T08:37:30;94831.75;;;13.58;33.01
61961;BME280;47923;42.506;24.192;2023-02-04T08:39:55;94701.53;;;13.44;31.44
61961;BME280;47923;42.506;24.192;2023-02-04T08:42:21;94898.16;;;14.41;32.02
61961;BME280;47923;42.506;24.192;2023-02-04T08:44:46;94731.53;;;12.55;32.81
61961;BME280;47923;42.506;24.192;2023-02-04T08:47:12;94912.94;;;14.36;32.77
61961;BME280;47923;42.506;24.192;2023-02-04T08:49:37;94937.28;;;14.61;31.79
61961;BME280;47923;42.506;24.192;2023-02-04T08:52:03;94897.31;;;15.17;31.15
61961;BME280;47923;42.506;24.192;2023-02-04T08:54:31;94888.16;;;15.45;30.76
61961;BME280;47923;42.506;24.192;2023-02-04T08:56:56;94912.69;;;16.21;30.57
61961;BME280;47923;42.506;24.192;2023-02-04T08:59:24;94890.44;;;16.56;28.46
61961;BME280;47923;42.506;24.192;2023-02-04T09:01:50;94923.47;;;15.53;29.99
61961;BME280;47923;42.506;24.192;2023-02-04T09:04:21;94917.31;;;15.45;31.42
61961;BME280;47923;42.506;24.192;2023-02-04T09:06:47;94910.59;;;15.08;30.76
61961;BME280;47923;42.506;24.192;2023-02-04T09:09:13;94867.19;;;14.24;31.66
61961;BME280;47923;42.506;24.192;2023-02-04T09:11:39;94917.78;;;14.81;31.74
61961;BME280;47923;42.506;24.192;2023-02-04T09:14:05;94914.72;;;13.06;33.89
61961;BME280;47923;42.506;24.192;2023-02-04T09:16:31;94876.50;;;11.92;36.02
61961;BME280;47923;42.506;24.192;2023-02-04T09:18:56;94904.66;;;11.21;38.75
61961;BME280;47923;42.506;24.192;2023-02-04T09:21:26;94815.38;;;11.14;37.96
61961;BME280;47923;42.506;24.192;2023-02-04T09:23:52;94904.88;;;11.53;37.98
61961;BME280;47923;42.506;24.192;2023-02-04T09:26:18;94908.84;;;10.71;39.68
61961;BME280;47923;42.506;24.192;2023-02-04T09:28:44;94883.84;;;10.37;39.71
61961;BME280;47923;42.506;24.192;2023-02-04T09:31:10;94906.31;;;10.48;39.85
61961;BME280;47923;42.506;24.192;2023-02-04T09:33:36;94897.78;;;10.09;41.12
61961;BME280;47923;42.506;24.192;2023-02-04T09:36:01;94907.16;;;9.58;42.12
61961;BME280;47923;42.506;24.192;2023-02-04T09:38:27;94571.09;;;6.90;43.71
61961;BME280;47923;42.506;24.192;2023-02-04T09:40:54;94869.88;;;8.84;43.79
61961;BME280;47923;42.506;24.192;2023-02-04T09:43:24;94846.16;;;8.94;43.68
61961;BME280;47923;42.506;24.192;2023-02-04T09:45:51;94885.06;;;9.49;42.67
61961;BME280;47923;42.506;24.192;2023-02-04T09:48:17;94897.69;;;9.72;42.62
61961;BME280;47923;42.506;24.192;2023-02-04T09:50:43;94888.31;;;8.82;44.04
61961;BME280;47923;42.506;24.192;2023-02-04T09:53:13;94880.25;;;7.79;47.05
61961;BME280;47923;42.506;24.192;2023-02-04T09:55:43;94887.81;;;7.73;47.28
61961;BME280;47923;42.506;24.192;2023-02-04T09:58:20;94892.03;;;7.19;48.73
61961;BME280;47923;42.506;24.192;2023-02-04T10:00:50;94751.34;;;6.22;49.72
61961;BME280;47923;42.506;24.192;2023-02-04T10:03:17;94880.66;;;6.91;50.51
61961;BME280;47923;42.506;24.192;2023-02-04T10:05:45;94880.75;;;6.79;51.11
61961;BME280;47923;42.506;24.192;2023-02-04T10:08:16;94734.22;;;5.95;50.27
61961;BME280;47923;42.506;24.192;2023-02-04T10:10:44;94817.38;;;6.11;51.67
61961;BME280;47923;42.506;24.192;2023-02-04T10:13:20;94807.25;;;5.48;53.64
61961;BME280;47923;42.506;24.192;2023-02-04T10:15:48;94305.13;;;2.32;53.24
61961;BME280;47923;42.506;24.192;2023-02-04T10:18:20;94868.78;;;6.29;53.38
61961;BME280;47923;42.506;24.192;2023-02-04T10:20:46;94860.91;;;6.52;52.54
61961;BME280;47923;42.506;24.192;2023-02-04T10:23:12;94734.41;;;6.02;52.03
61961;BME280;47923;42.506;24.192;2023-02-04T10:25:37;94453.88;;;4.92;50.14
61961;BME280;47923;42.506;24.192;2023-02-04T10:28:03;94845.25;;;7.40;50.48
61961;BME280;47923;42.506;24.192;2023-02-04T10:30:40;94807.34;;;7.06;50.33
61961;BME280;47923;42.506;24.192;2023-02-04T10:33:14;94857.47;;;7.72;49.80
61961;BME280;47923;42.506;24.192;2023-02-04T10:35:48;94798.63;;;7.71;49.00
61961;BME280;47923;42.506;24.192;2023-02-04T10:38:14;94841.34;;;9.06;46.15
61961;BME280;47923;42.506;24.192;2023-02-04T10:40:39;94842.44;;;9.58;44.80
61961;BME280;47923;42.506;24.192;2023-02-04T10:43:21;94834.19;;;9.78;44.34
61961;BME280;47923;42.506;24.192;2023-02-04T10:46:18;94831.94;;;9.53;45.17
61961;BME280;47923;42.506;24.192;2023-02-04T10:48:46;94679.28;;;8.48;44.48
61961;BME280;47923;42.506;24.192;2023-02-04T10:51:12;94830.16;;;9.94;44.50
61961;BME280;47923;42.506;24.192;2023-02-04T10:53:37;94713.44;;;9.30;42.99
61961;BME280;47923;42.506;24.192;2023-02-04T10:56:21;94772.94;;;9.82;43.86
61961;BME280;47923;42.506;24.192;2023-02-04T10:58:48;94838.63;;;9.93;44.33
61961;BME280;47923;42.506;24.192;2023-02-04T11:01:15;94828.59;;;9.93;44.76
61961;BME280;47923;42.506;24.192;2023-02-04T11:03:41;94679.03;;;8.56;46.28
61961;BME280;47923;42.506;24.192;2023-02-04T11:06:22;94686.03;;;7.89;50.81
61961;BME280;47923;42.506;24.192;2023-02-04T11:08:48;94823.91;;;9.00;51.14
61961;BME280;47923;42.506;24.192;2023-02-04T11:11:19;94829.59;;;9.18;51.28
61961;BME280;47923;42.506;24.192;2023-02-04T11:26:42;94819.44;;;6.49;63.07
61961;BME280;47923;42.506;24.192;2023-02-04T11:29:25;94829.81;;;6.19;65.00
61961;BME280;47923;42.506;24.192;2023-02-04T11:39:51;94823.75;;;5.50;68.41
61961;BME280;47923;42.506;24.192;2023-02-04T11:44:49;94829.03;;;4.94;71.83
61961;BME280;47923;42.506;24.192;2023-02-04T11:47:15;94787.22;;;4.90;72.24
61961;BME280;47923;42.506;24.192;2023-02-04T11:49:41;94641.75;;;4.42;70.56
61961;BME280;47923;42.506;24.192;2023-02-04T11:52:12;94831.53;;;5.96;68.78
61961;BME280;47923;42.506;24.192;2023-02-04T11:54:37;94804.50;;;6.32;66.15
61961;BME280;47923;42.506;24.192;2023-02-04T11:57:03;94800.06;;;6.56;65.44
61961;BME280;47923;42.506;24.192;2023-02-04T11:59:29;94799.94;;;6.84;65.39
61961;BME280;47923;42.506;24.192;2023-02-04T12:02:12;94767.22;;;6.98;63.45
61961;BME280;47923;42.506;24.192;2023-02-04T12:04:49;94626.25;;;6.14;62.34
61961;BME280;47923;42.506;24.192;2023-02-04T12:07:22;94654.56;;;5.96;63.10
61961;BME280;47923;42.506;24.192;2023-02-04T12:09:48;94796.22;;;7.08;64.38
61961;BME280;47923;42.506;24.192;2023-02-04T12:12:26;94595.34;;;5.69;64.80
61961;BME280;47923;42.506;24.192;2023-02-04T12:14:57;94560.19;;;5.39;64.28
61961;BME280;47923;42.506;24.192;2023-02-04T12:17:23;94791.47;;;7.01;64.55
61961;BME280;47923;42.506;24.192;2023-02-04T12:19:48;94795.56;;;6.95;66.96
61961;BME280;47923;42.506;24.192;2023-02-04T12:22:13;94795.22;;;6.97;64.77
61961;BME280;47923;42.506;24.192;2023-02-04T12:24:40;94813.59;;;6.95;64.47
61961;BME280;47923;42.506;24.192;2023-02-04T12:27:05;94528.56;;;5.45;65.20
61961;BME280;47923;42.506;24.192;2023-02-04T12:29:31;94764.97;;;7.00;66.36
61961;BME280;47923;42.506;24.192;2023-02-04T12:31:56;94710.81;;;6.98;65.67
61961;BME280;47923;42.506;24.192;2023-02-04T12:34:21;94651.81;;;6.62;63.55
61961;BME280;47923;42.506;24.192;2023-02-04T12:36:47;94705.94;;;6.64;66.81
61961;BME280;47923;42.506;24.192;2023-02-04T12:39:12;94782.47;;;6.58;65.72
61961;BME280;47923;42.506;24.192;2023-02-04T12:41:38;94674.13;;;5.96;66.98
61961;BME280;47923;42.506;24.192;2023-02-04T12:44:03;94789.09;;;7.15;66.09
61961;BME280;47923;42.506;24.192;2023-02-04T12:46:29;94654.28;;;6.52;66.07
61961;BME280;47923;42.506;24.192;2023-02-04T12:48:54;94430.53;;;5.09;64.78
61961;BME280;47923;42.506;24.192;2023-02-04T12:51:20;94799.44;;;7.33;63.84
61961;BME280;47923;42.506;24.192;2023-02-04T12:53:47;94808.72;;;7.00;65.09
61961;BME280;47923;42.506;24.192;2023-02-04T12:56:14;94810.63;;;7.00;65.85
61961;BME280;47923;42.506;24.192;2023-02-04T12:58:42;94810.78;;;6.72;67.43
61961;BME280;47923;42.506;24.192;2023-02-04T13:01:08;94813.28;;;6.64;67.10
61961;BME280;47923;42.506;24.192;2023-02-04T13:03:33;94841.59;;;6.46;69.03
61961;BME280;47923;42.506;24.192;2023-02-04T13:05:58;94524.13;;;4.18;69.32
61961;BME280;47923;42.506;24.192;2023-02-04T13:08:24;94658.41;;;4.91;69.60
61961;BME280;47923;42.506;24.192;2023-02-04T13:10:49;94831.63;;;5.99;69.85
61961;BME280;47923;42.506;24.192;2023-02-04T13:13:20;94830.63;;;5.64;69.75
61961;BME280;47923;42.506;24.192;2023-02-04T13:15:46;94832.97;;;5.65;70.77
61961;BME280;47923;42.506;24.192;2023-02-04T13:18:12;94697.78;;;4.51;70.65